Time;durP1;ratioP1;P1;durP2;ratioP2;P2;SDS_P1;SDS_P2;PMS_P1;PMS_P2;Temp;Humidity;BMP_temperature;BMP_pressure;BME280_temperature;BME280_humidity;BME280_pressure;Samples;Min_cycle;Max_cycle;Signal;HPM_P1;HPM_P2
2023/04/03 00:00:08;;;;;;;;;;;;;;;4.32;72.22;103446.06;20924289;28;19982;-58
2023/04/03 00:10:30;;;;;;;;;;;;;;;4.23;72.82;103455.94;20923967;28;20451;-57
2023/04/03 00:20:51;;;;;;;;;;;;;;;4.17;73.20;103468.53;20952752;28;19998;-57
2023/04/03 00:31:14;;;;;;;;;;;;;;;4.06;73.80;103462.97;21026324;28;19924;-57
2023/04/03 00:41:35;;;;;;;;;;;;;;;3.97;73.45;103464.34;21015517;28;19931;-56
2023/04/03 00:51:57;;;;;;;;;;;;;;;3.91;74.74;103464.09;21037350;28;19936;-57
2023/04/03 01:02:19;;;;;;;;;;;;;;;3.83;73.87;103447.53;21023235;28;19997;-56
2023/04/03 01:12:42;;;;;;;;;;;;;;;3.77;74.78;103453.28;21015569;28;19925;-57
2023/04/03 01:23:13;;;;;;;;;;;;;;;3.66;75.25;103466.47;21014889;28;20056;-56
2023/04/03 01:33:35;;;;;;;;;;;;;;;3.52;75.49;103476.13;21019121;28;19925;-57
2023/04/03 01:43:56;;;;;;;;;;;;;;;3.43;75.11;103469.75;21019697;28;20318;-57
2023/04/03 01:54:18;;;;;;;;;;;;;;;3.42;75.43;103489.38;21017887;28;20361;-57
2023/04/03 02:04:40;;;;;;;;;;;;;;;3.33;75.92;103490.66;21027594;28;19932;-58
2023/04/03 02:15:01;;;;;;;;;;;;;;;3.28;75.87;103510.06;21017112;28;20014;-58
2023/04/03 02:25:22;;;;;;;;;;;;;;;3.21;76.63;103495.25;20960785;28;20303;-58
2023/04/03 02:35:46;;;;;;;;;;;;;;;3.12;76.22;103512.75;20916689;28;19964;-57
2023/04/03 02:46:07;;;;;;;;;;;;;;;3.02;76.51;103519.19;20925743;28;19948;-58
2023/04/03 02:56:29;;;;;;;;;;;;;;;2.96;77.25;103517.22;20956677;28;20413;-56
2023/04/03 03:06:50;;;;;;;;;;;;;;;2.90;76.87;103527.16;20923394;28;19940;-57
2023/04/03 03:17:12;;;;;;;;;;;;;;;2.83;77.53;103525.16;20930131;28;19929;-58
2023/04/03 03:27:33;;;;;;;;;;;;;;;2.84;77.35;103533.66;21026358;28;20418;-57
2023/04/03 03:37:55;;;;;;;;;;;;;;;2.74;77.39;103529.84;21034177;28;19989;-57
2023/04/03 03:48:16;;;;;;;;;;;;;;;2.68;78.44;103529.56;21026855;28;20406;-57
2023/04/03 03:58:37;;;;;;;;;;;;;;;2.63;78.35;103523.38;21034869;28;19935;-57
2023/04/03 04:08:59;;;;;;;;;;;;;;;2.59;78.11;103543.59;21029399;28;19994;-59
2023/04/03 04:19:20;;;;;;;;;;;;;;;2.51;78.90;103535.56;21019708;28;20601;-58
2023/04/03 04:29:45;;;;;;;;;;;;;;;2.51;78.25;103556.00;21031270;28;20383;-59
2023/04/03 04:50:40;;;;;;;;;;;;;;;2.43;78.38;103572.69;21000437;22;19933;-55
2023/04/03 05:01:05;;;;;;;;;;;;;;;2.37;78.39;103562.16;20795058;28;20352;-54
2023/04/03 05:11:27;;;;;;;;;;;;;;;2.37;79.04;103569.81;20806434;28;19925;-55
2023/04/03 05:21:48;;;;;;;;;;;;;;;2.38;78.94;103581.78;20787984;28;19972;-55
2023/04/03 05:32:10;;;;;;;;;;;;;;;2.39;79.71;103583.53;20794617;28;19929;-53
2023/04/03 05:42:32;;;;;;;;;;;;;;;2.44;79.16;103592.28;20796510;28;19929;-55
2023/04/03 05:52:56;;;;;;;;;;;;;;;2.47;79.33;103619.69;20790264;28;20007;-55
2023/04/03 06:03:17;;;;;;;;;;;;;;;2.53;79.91;103619.94;20788720;28;20507;-55
2023/04/03 06:13:39;;;;;;;;;;;;;;;2.69;78.73;103628.41;20789361;28;19929;-55
2023/04/03 06:24:00;;;;;;;;;;;;;;;2.85;78.38;103636.03;20802332;28;19932;-54
2023/04/03 06:34:22;;;;;;;;;;;;;;;2.98;77.52;103643.44;20793495;28;20175;-54
2023/04/03 06:44:43;;;;;;;;;;;;;;;3.17;77.96;103654.53;20805793;28;19929;-54
2023/04/03 06:55:05;;;;;;;;;;;;;;;3.32;76.60;103655.19;20801358;28;20276;-55
2023/04/03 07:05:26;;;;;;;;;;;;;;;3.42;75.62;103657.38;20807369;28;19926;-58
2023/04/03 07:15:48;;;;;;;;;;;;;;;3.62;76.13;103667.69;20803505;28;20000;-56
2023/04/03 07:26:09;;;;;;;;;;;;;;;3.85;74.84;103678.94;20791501;28;20331;-57
2023/04/03 07:36:33;;;;;;;;;;;;;;;4.09;74.79;103677.41;20778764;28;19972;-55
2023/04/03 07:46:57;;;;;;;;;;;;;;;4.27;74.53;103692.72;20795723;28;19983;-57
2023/04/03 07:57:18;;;;;;;;;;;;;;;4.43;73.17;103689.97;20808756;28;19940;-57
2023/04/03 08:07:40;;;;;;;;;;;;;;;4.50;73.88;103680.03;20782848;28;19925;-58
2023/04/03 08:18:01;;;;;;;;;;;;;;;4.70;73.72;103681.69;20801741;28;19929;-58
2023/04/03 08:28:23;;;;;;;;;;;;;;;4.88;72.75;103672.16;20787778;28;19948;-56
2023/04/03 08:38:44;;;;;;;;;;;;;;;4.99;72.47;103675.13;20803121;28;19975;-56
2023/04/03 08:49:14;;;;;;;;;;;;;;;5.33;71.15;103673.03;20777452;28;19949;-56
2023/04/03 08:59:38;;;;;;;;;;;;;;;5.58;67.88;103670.56;20795510;28;19936;-56
2023/04/03 09:10:02;;;;;;;;;;;;;;;5.78;64.39;103659.28;20796312;28;19925;-56
2023/04/03 09:20:47;;;;;;;;;;;;;;;5.89;65.59;103652.00;20794927;28;19929;-55
2023/04/03 09:31:16;;;;;;;;;;;;;;;6.10;64.79;103645.00;20768410;28;19929;-57
2023/04/03 09:41:38;;;;;;;;;;;;;;;6.32;61.97;103641.47;20792145;28;20372;-55
2023/04/03 09:52:18;;;;;;;;;;;;;;;6.50;57.76;103624.91;20793205;28;19936;-56
2023/04/03 10:02:40;;;;;;;;;;;;;;;6.58;63.12;103623.47;20809424;28;19980;-56
2023/04/03 10:13:23;;;;;;;;;;;;;;;6.74;61.48;103623.09;20810747;28;19968;-56
2023/04/03 10:23:49;;;;;;;;;;;;;;;6.85;61.11;103619.16;20806250;28;19976;-55
2023/04/03 10:34:29;;;;;;;;;;;;;;;6.98;60.39;103610.97;20796020;28;19933;-56
2023/04/03 10:44:57;;;;;;;;;;;;;;;7.14;62.08;103602.88;20806117;28;20442;-56
2023/04/03 10:55:37;;;;;;;;;;;;;;;7.25;59.07;103590.31;20803257;28;19925;-57
2023/04/03 11:06:01;;;;;;;;;;;;;;;7.39;61.19;103583.84;20800011;28;19925;-57
2023/04/03 11:16:27;;;;;;;;;;;;;;;7.55;61.14;103559.34;20803601;28;19993;-57
2023/04/03 11:26:53;;;;;;;;;;;;;;;7.78;56.41;103538.47;20813194;28;19970;-56
2023/04/03 11:37:15;;;;;;;;;;;;;;;7.99;54.15;103533.00;20797823;28;20369;-57
2023/04/03 11:47:47;;;;;;;;;;;;;;;8.15;56.56;103524.78;20801761;28;19975;-56
2023/04/03 11:58:15;;;;;;;;;;;;;;;8.20;55.01;103507.72;20799098;28;19925;-55
2023/04/03 12:08:39;;;;;;;;;;;;;;;8.37;57.63;103500.41;20794796;28;19971;-57
2023/04/03 12:19:03;;;;;;;;;;;;;;;8.48;56.10;103489.44;20792855;28;19975;-57
2023/04/03 12:29:28;;;;;;;;;;;;;;;8.69;60.09;103465.81;20787725;28;20270;-56
2023/04/03 12:40:00;;;;;;;;;;;;;;;8.98;56.35;103452.63;20796914;28;19925;-57
2023/04/03 12:50:29;;;;;;;;;;;;;;;9.12;58.35;103440.84;20792212;28;19995;-57
2023/04/03 13:01:04;;;;;;;;;;;;;;;9.21;53.38;103434.94;20787413;28;19987;-56
2023/04/03 13:11:28;;;;;;;;;;;;;;;9.17;53.38;103424.56;20785781;28;19925;-57
2023/04/03 13:21:52;;;;;;;;;;;;;;;9.27;53.71;103413.53;20789105;28;19933;-57
2023/04/03 13:32:17;;;;;;;;;;;;;;;9.47;55.60;103402.69;20786718;28;19929;-55
2023/04/03 13:42:43;;;;;;;;;;;;;;;9.57;58.69;103406.28;20790670;28;20233;-56
2023/04/03 13:53:14;;;;;;;;;;;;;;;9.52;54.25;103395.84;20805801;28;19929;-57
2023/04/03 14:03:41;;;;;;;;;;;;;;;9.54;53.94;103386.41;20788636;28;20474;-57
2023/04/03 14:14:09;;;;;;;;;;;;;;;10.06;56.56;103367.34;20787038;28;20790;-58
2023/04/03 14:24:31;;;;;;;;;;;;;;;10.16;55.92;103361.50;20777249;28;20270;-56
2023/04/03 14:34:53;;;;;;;;;;;;;;;10.14;57.41;103365.78;20785981;28;19929;-57
2023/04/03 14:45:15;;;;;;;;;;;;;;;10.57;52.45;103368.00;20789960;28;20368;-57
2023/04/03 14:55:37;;;;;;;;;;;;;;;10.27;56.25;103357.31;20790381;28;19929;-58
2023/04/03 15:05:59;;;;;;;;;;;;;;;10.33;58.26;103349.59;20792836;28;19983;-57
2023/04/03 15:16:21;;;;;;;;;;;;;;;10.87;53.64;103332.06;20808410;28;19979;-56
2023/04/03 15:26:42;;;;;;;;;;;;;;;10.56;58.69;103335.22;20806714;28;19929;-56
2023/04/03 15:37:04;;;;;;;;;;;;;;;10.73;57.79;103323.28;20800543;28;19978;-57
2023/04/03 15:47:26;;;;;;;;;;;;;;;11.12;57.58;103313.28;20790249;28;19929;-56
2023/04/03 15:57:47;;;;;;;;;;;;;;;11.44;57.92;103304.84;20786422;28;20364;-57
2023/04/03 16:08:09;;;;;;;;;;;;;;;11.52;58.70;103303.19;20788788;28;19936;-57
2023/04/03 16:18:31;;;;;;;;;;;;;;;11.66;57.97;103304.16;20798811;28;19929;-57
2023/04/03 16:28:53;;;;;;;;;;;;;;;12.18;50.29;103295.72;20791069;28;20024;-57
2023/04/03 16:39:15;;;;;;;;;;;;;;;12.51;60.35;103285.41;20804816;28;19937;-56
2023/04/03 16:49:38;;;;;;;;;;;;;;;11.65;60.75;103292.03;20793666;28;19926;-58
2023/04/03 16:59:59;;;;;;;;;;;;;;;11.09;60.89;103305.50;20804475;28;20019;-56
2023/04/03 17:10:21;;;;;;;;;;;;;;;10.65;60.88;103301.66;20788110;28;19933;-56
2023/04/03 17:20:42;;;;;;;;;;;;;;;10.18;63.98;103291.66;20790238;28;20014;-56
2023/04/03 17:31:04;;;;;;;;;;;;;;;9.55;64.12;103307.16;20791932;28;20004;-57
2023/04/03 17:41:27;;;;;;;;;;;;;;;9.31;66.09;103317.13;20790057;28;21288;-55
2023/04/03 17:51:48;;;;;;;;;;;;;;;9.08;66.05;103325.41;20777470;28;19952;-57
2023/04/03 18:02:10;;;;;;;;;;;;;;;8.85;66.94;103334.47;20787087;28;19937;-57
2023/04/03 18:12:31;;;;;;;;;;;;;;;8.60;67.14;103332.31;20793433;28;19925;-57
2023/04/03 18:22:53;;;;;;;;;;;;;;;8.36;68.09;103339.59;20801306;28;19968;-56
2023/04/03 18:33:14;;;;;;;;;;;;;;;8.21;68.81;103339.25;20803693;28;19964;-56
2023/04/03 18:43:36;;;;;;;;;;;;;;;7.99;68.14;103342.22;20804870;28;19929;-57
2023/04/03 18:53:57;;;;;;;;;;;;;;;7.85;68.95;103348.78;20801159;28;19929;-57
2023/04/03 19:04:19;;;;;;;;;;;;;;;7.65;68.90;103360.38;20805111;28;19925;-56
2023/04/03 19:14:40;;;;;;;;;;;;;;;7.45;68.77;103359.91;20799651;28;20258;-56
2023/04/03 19:25:03;;;;;;;;;;;;;;;7.32;69.72;103359.56;20808065;28;19933;-57
2023/04/03 19:35:24;;;;;;;;;;;;;;;7.20;70.76;103359.28;20804331;28;19929;-57
2023/04/03 19:45:45;;;;;;;;;;;;;;;7.12;70.31;103362.50;20796131;28;19929;-57
2023/04/03 19:56:07;;;;;;;;;;;;;;;6.98;70.38;103353.59;20794717;28;19979;-58
2023/04/03 20:06:28;;;;;;;;;;;;;;;6.85;70.33;103346.38;20777208;28;19933;-56
2023/04/03 20:16:49;;;;;;;;;;;;;;;6.81;70.92;103341.97;20784242;28;19929;-58
2023/04/03 20:27:11;;;;;;;;;;;;;;;6.73;71.86;103340.94;20798844;28;19972;-56
2023/04/03 20:37:32;;;;;;;;;;;;;;;6.64;71.81;103335.53;20791983;28;19925;-56
2023/04/03 20:47:54;;;;;;;;;;;;;;;6.58;71.57;103335.38;20779801;28;19929;-58
2023/04/03 20:58:16;;;;;;;;;;;;;;;6.48;69.94;103333.41;20784416;28;19951;-57
2023/04/03 21:09:00;;;;;;;;;;;;;;;6.39;71.09;103338.25;20788828;28;20559;-57
2023/04/03 21:19:21;;;;;;;;;;;;;;;6.18;69.02;103342.81;20782195;28;20420;-56
2023/04/03 21:29:43;;;;;;;;;;;;;;;6.01;68.18;103350.03;20796231;28;19960;-58
2023/04/03 21:40:06;;;;;;;;;;;;;;;5.87;66.44;103356.47;20799605;28;19933;-56
2023/04/03 21:50:28;;;;;;;;;;;;;;;5.75;67.16;103350.06;20795085;28;20296;-56
2023/04/03 22:00:49;;;;;;;;;;;;;;;5.62;66.41;103358.22;20803740;28;20266;-56
2023/04/03 22:11:12;;;;;;;;;;;;;;;5.50;66.81;103353.56;20804489;28;19925;-56
2023/04/03 22:21:34;;;;;;;;;;;;;;;5.41;65.87;103352.41;20808524;28;19933;-57
2023/04/03 22:31:55;;;;;;;;;;;;;;;5.31;67.11;103360.66;20792951;28;19933;-58
2023/04/03 22:42:17;;;;;;;;;;;;;;;5.19;66.17;103360.22;20814782;28;19929;-56
2023/04/03 22:52:39;;;;;;;;;;;;;;;5.11;67.63;103363.44;20801947;28;19925;-55
2023/04/03 23:03:00;;;;;;;;;;;;;;;4.98;67.33;103363.84;20801679;28;20365;-56
2023/04/03 23:13:22;;;;;;;;;;;;;;;4.88;67.98;103354.09;20804317;28;19972;-56
2023/04/03 23:23:44;;;;;;;;;;;;;;;4.79;67.48;103369.19;20796562;28;19972;-57
2023/04/03 23:34:05;;;;;;;;;;;;;;;4.66;68.29;103372.13;20787379;28;19929;-57
2023/04/03 23:44:26;;;;;;;;;;;;;;;4.57;68.79;103359.00;20800434;28;20300;-55
2023/04/03 23:54:49;;;;;;;;;;;;;;;4.48;69.11;103353.53;20805078;28;19932;-58
